Time,TemperatureF,DewpointF,PressureIn,WindDirection,WindDirectionDegrees,WindSpeedMPH,WindSpeedGustMPH,Humidity,HourlyPrecipIn,Conditions,Clouds,dailyrainin,SoftwareType,DateUTC
2013-02-23 00:04:00,49.6,49.3,29.82,East,90,6.3,-999.0,99,-99.99,,,0.00,Acu-Link.com,2013-02-23 05:04:00,
2013-02-23 00:20:00,49.6,49.3,29.82,NNE,22,2.2,-999.0,99,-99.99,,,0.01,Acu-Link.com,2013-02-23 05:20:00,
2013-02-23 00:35:00,49.6,49.3,29.82,NE,45,1.1,-999.0,99,-99.99,,,0.03,Acu-Link.com,2013-02-23 05:35:00,
2013-02-23 00:51:00,49.5,49.2,29.82,ENE,67,4.2,-999.0,99,-99.99,,,0.04,Acu-Link.com,2013-02-23 05:51:00,
2013-02-23 01:06:00,49.3,49.0,29.82,NW,315,2.7,-999.0,99,-99.99,,,0.05,Acu-Link.com,2013-02-23 06:06:00,
2013-02-23 01:21:00,48.7,48.4,29.83,NW,315,3.7,-999.0,99,-99.99,,,0.06,Acu-Link.com,2013-02-23 06:21:00,
2013-02-23 01:36:00,48.7,48.4,29.83,WNW,292,3.2,-999.0,99,-99.99,,,0.07,Acu-Link.com,2013-02-23 06:36:00,
2013-02-23 01:52:00,48.4,48.1,29.82,NW,315,6.3,-999.0,99,-99.99,,,0.07,Acu-Link.com,2013-02-23 06:52:00,
2013-02-23 02:07:00,48.0,47.7,29.80,NNE,22,4.7,-999.0,99,-99.99,,,0.08,Acu-Link.com,2013-02-23 07:07:00,
2013-02-23 02:22:00,47.7,47.4,29.80,NE,45,2.7,-999.0,99,-99.99,,,0.10,Acu-Link.com,2013-02-23 07:22:00,
2013-02-23 02:37:00,47.5,47.2,29.78,NNE,22,3.7,-999.0,99,-99.99,,,0.11,Acu-Link.com,2013-02-23 07:37:00,
2013-02-23 02:52:00,47.3,47.0,29.77,West,270,3.7,-999.0,99,-99.99,,,0.12,Acu-Link.com,2013-02-23 07:52:00,
2013-02-23 03:08:00,47.3,47.0,29.76,East,90,2.2,-999.0,99,-99.99,,,0.13,Acu-Link.com,2013-02-23 08:08:00,
2013-02-23 03:23:00,47.1,46.8,29.76,NE,45,3.2,-999.0,99,-99.99,,,0.14,Acu-Link.com,2013-02-23 08:23:00,
2013-02-23 03:38:00,47.1,46.8,29.75,NNE,22,2.7,-999.0,99,-99.99,,,0.15,Acu-Link.com,2013-02-23 08:38:00,
2013-02-23 03:53:00,47.5,47.2,29.73,East,90,4.2,-999.0,99,-99.99,,,0.18,Acu-Link.com,2013-02-23 08:53:00,
2013-02-23 04:20:00,47.7,47.4,29.73,East,90,4.2,-999.0,99,-99.99,,,0.23,Acu-Link.com,2013-02-23 09:20:00,
2013-02-23 04:35:00,48.0,47.7,29.73,NNE,22,1.7,-999.0,99,-99.99,,,0.26,Acu-Link.com,2013-02-23 09:35:00,
2013-02-23 04:51:00,48.2,47.9,29.73,NW,315,4.2,-999.0,99,-99.99,,,0.26,Acu-Link.com,2013-02-23 09:51:00,
2013-02-23 05:06:00,48.0,47.7,29.73,North,0,4.2,-999.0,99,-99.99,,,0.28,Acu-Link.com,2013-02-23 10:06:00,
2013-02-23 05:21:00,47.5,47.2,29.72,ENE,67,5.8,-999.0,99,-99.99,,,0.28,Acu-Link.com,2013-02-23 10:21:00,
2013-02-23 05:36:00,47.3,47.0,29.74,East,90,2.7,-999.0,99,-99.99,,,0.37,Acu-Link.com,2013-02-23 10:36:00,
2013-02-23 05:52:00,47.3,47.0,29.75,NNE,22,0.0,-999.0,99,-99.99,,,0.40,Acu-Link.com,2013-02-23 10:52:00,
2013-02-23 06:07:00,47.1,46.8,29.74,NE,45,4.7,-999.0,99,-99.99,,,0.51,Acu-Link.com,2013-02-23 11:07:00,
2013-02-23 06:22:00,47.3,47.0,29.72,East,90,7.3,-999.0,99,-99.99,,,0.58,Acu-Link.com,2013-02-23 11:22:00,
2013-02-23 06:37:00,47.5,47.2,29.72,NE,45,5.3,-999.0,99,-99.99,,,0.77,Acu-Link.com,2013-02-23 11:37:00,
2013-02-23 06:52:00,47.5,47.2,29.73,East,90,4.7,-999.0,99,-99.99,,,0.83,Acu-Link.com,2013-02-23 11:52:00,
2013-02-23 07:08:00,47.8,47.5,29.74,WNW,292,2.7,-999.0,99,-99.99,,,0.90,Acu-Link.com,2013-02-23 12:08:00,
2013-02-23 07:23:00,47.8,47.5,29.74,ESE,112,3.7,-999.0,99,-99.99,,,0.94,Acu-Link.com,2013-02-23 12:23:00,
2013-02-23 07:38:00,48.0,47.7,29.73,ESE,112,3.2,-999.0,99,-99.99,,,0.97,Acu-Link.com,2013-02-23 12:38:00,
2013-02-23 07:53:00,48.2,47.9,29.74,West,270,1.1,-999.0,99,-99.99,,,0.97,Acu-Link.com,2013-02-23 12:53:00,
2013-02-23 08:08:00,48.6,48.3,29.74,ESE,112,2.7,-999.0,99,-99.99,,,0.97,Acu-Link.com,2013-02-23 13:08:00,
2013-02-23 08:23:00,49.1,48.8,29.74,ESE,112,3.2,-999.0,99,-99.99,,,0.98,Acu-Link.com,2013-02-23 13:23:00,
2013-02-23 08:39:00,49.6,49.3,29.75,South,180,0.0,-999.0,99,-99.99,,,0.98,Acu-Link.com,2013-02-23 13:39:00,
2013-02-23 08:54:00,50.0,49.7,29.75,NE,45,0.0,-999.0,99,-99.99,,,1.00,Acu-Link.com,2013-02-23 13:54:00,
2013-02-23 09:09:00,50.7,50.4,29.74,SE,135,2.2,-999.0,99,-99.99,,,1.05,Acu-Link.com,2013-02-23 14:09:00,
2013-02-23 09:24:00,50.9,50.6,29.75,WNW,292,5.8,-999.0,99,-99.99,,,1.07,Acu-Link.com,2013-02-23 14:24:00,
2013-02-23 09:40:00,50.0,49.7,29.75,NW,315,4.7,-999.0,99,-99.99,,,1.09,Acu-Link.com,2013-02-23 14:40:00,
2013-02-23 09:55:00,49.3,49.0,29.75,East,90,2.7,-999.0,99,-99.99,,,1.11,Acu-Link.com,2013-02-23 14:55:00,
2013-02-23 10:10:00,48.7,48.4,29.77,NW,315,2.7,-999.0,99,-99.99,,,1.14,Acu-Link.com,2013-02-23 15:10:00,
2013-02-23 10:25:00,48.7,48.4,29.76,North,0,3.2,-999.0,99,-99.99,,,1.24,Acu-Link.com,2013-02-23 15:25:00,
2013-02-23 10:40:00,48.9,48.6,29.75,East,90,2.2,-999.0,99,-99.99,,,1.30,Acu-Link.com,2013-02-23 15:40:00,
2013-02-23 10:55:00,49.6,49.3,29.74,East,90,1.7,-999.0,99,-99.99,,,1.37,Acu-Link.com,2013-02-23 15:55:00,
2013-02-23 11:11:00,50.2,49.9,29.75,NNW,337,1.7,-999.0,99,-99.99,,,1.44,Acu-Link.com,2013-02-23 16:11:00,
2013-02-23 11:26:00,50.7,50.4,29.76,NW,315,4.7,-999.0,99,-99.99,,,1.57,Acu-Link.com,2013-02-23 16:26:00,
2013-02-23 11:41:00,50.9,50.6,29.75,SSE,157,1.1,-999.0,99,-99.99,,,1.65,Acu-Link.com,2013-02-23 16:41:00,
2013-02-23 11:56:00,51.6,51.3,29.76,West,270,4.2,-999.0,99,-99.99,,,1.72,Acu-Link.com,2013-02-23 16:56:00,
2013-02-23 12:11:00,52.0,51.7,29.75,SSW,202,0.0,-999.0,99,-99.99,,,1.86,Acu-Link.com,2013-02-23 17:11:00,
2013-02-23 12:27:00,53.1,52.8,29.74,SSW,202,0.0,-999.0,99,-99.99,,,1.99,Acu-Link.com,2013-02-23 17:27:00,
2013-02-23 12:42:00,53.8,53.5,29.73,ESE,112,0.0,-999.0,99,-99.99,,,1.99,Acu-Link.com,2013-02-23 17:42:00,
2013-02-23 12:58:00,54.7,54.4,29.74,West,270,0.0,-999.0,99,-99.99,,,1.99,Acu-Link.com,2013-02-23 17:58:00,
2013-02-23 13:13:00,54.9,54.6,29.74,ENE,67,0.0,-999.0,99,-99.99,,,2.00,Acu-Link.com,2013-02-23 18:13:00,
2013-02-23 13:28:00,55.4,55.1,29.72,ESE,112,2.2,-999.0,99,-99.99,,,2.04,Acu-Link.com,2013-02-23 18:28:00,
2013-02-23 13:44:00,55.9,55.6,29.71,SSE,157,2.2,-999.0,99,-99.99,,,2.05,Acu-Link.com,2013-02-23 18:44:00,
2013-02-23 13:59:00,56.8,56.5,29.70,North,0,2.7,-999.0,99,-99.99,,,2.06,Acu-Link.com,2013-02-23 18:59:00,
2013-02-23 14:14:00,57.2,56.9,29.70,ESE,112,4.2,-999.0,99,-99.99,,,2.15,Acu-Link.com,2013-02-23 19:14:00,
2013-02-23 14:29:00,58.1,57.8,29.68,North,0,7.3,-999.0,99,-99.99,,,2.18,Acu-Link.com,2013-02-23 19:29:00,
2013-02-23 14:44:00,59.4,59.1,29.66,NE,45,2.2,-999.0,99,-99.99,,,2.21,Acu-Link.com,2013-02-23 19:44:00,
2013-02-23 15:00:00,60.8,60.5,29.65,East,90,6.3,-999.0,99,-99.99,,,2.23,Acu-Link.com,2013-02-23 20:00:00,
2013-02-23 15:15:00,61.3,61.0,29.62,East,90,6.8,-999.0,99,-99.99,,,2.24,Acu-Link.com,2013-02-23 20:15:00,
2013-02-23 15:30:00,61.5,61.2,29.63,WSW,247,4.2,-999.0,99,-99.99,,,2.24,Acu-Link.com,2013-02-23 20:30:00,
2013-02-23 15:45:00,61.2,60.9,29.62,East,90,4.7,-999.0,99,-99.99,,,2.25,Acu-Link.com,2013-02-23 20:45:00,
2013-02-23 16:01:00,59.9,59.6,29.63,SW,225,1.7,-999.0,99,-99.99,,,2.25,Acu-Link.com,2013-02-23 21:01:00,
2013-02-23 16:16:00,60.4,60.1,29.65,NE,45,3.2,-999.0,99,-99.99,,,2.26,Acu-Link.com,2013-02-23 21:16:00,
2013-02-23 16:31:00,61.0,60.7,29.64,NW,315,3.2,-999.0,99,-99.99,,,2.27,Acu-Link.com,2013-02-23 21:31:00,
2013-02-23 16:46:00,61.2,60.9,29.62,West,270,4.2,-999.0,99,-99.99,,,2.27,Acu-Link.com,2013-02-23 21:46:00,
2013-02-23 17:02:00,60.8,60.5,29.65,West,270,4.7,-999.0,99,-99.99,,,2.27,Acu-Link.com,2013-02-23 22:02:00,
2013-02-23 17:17:00,60.8,60.5,29.64,WNW,292,1.7,-999.0,99,-99.99,,,2.27,Acu-Link.com,2013-02-23 22:17:00,
2013-02-23 17:32:00,60.6,60.3,29.63,NNW,337,0.0,-999.0,99,-99.99,,,2.27,Acu-Link.com,2013-02-23 22:32:00,
2013-02-23 17:48:00,60.1,59.8,29.63,West,270,0.0,-999.0,99,-99.99,,,2.27,Acu-Link.com,2013-02-23 22:48:00,
2013-02-23 18:03:00,59.7,59.4,29.62,NNE,22,0.0,-999.0,99,-99.99,,,2.27,Acu-Link.com,2013-02-23 23:03:00,
2013-02-23 18:18:00,59.4,59.1,29.64,West,270,2.7,-999.0,99,-99.99,,,2.27,Acu-Link.com,2013-02-23 23:18:00,
2013-02-23 18:34:00,59.7,59.4,29.65,West,270,2.7,-999.0,99,-99.99,,,2.27,Acu-Link.com,2013-02-23 23:34:00,
2013-02-23 18:49:00,59.7,59.4,29.65,West,270,3.7,-999.0,99,-99.99,,,2.27,Acu-Link.com,2013-02-23 23:49:00,
2013-02-23 19:04:00,59.4,59.1,29.66,WNW,292,5.8,-999.0,99,-99.99,,,2.27,Acu-Link.com,2013-02-24 00:04:00,
2013-02-23 19:19:00,56.1,55.8,29.66,NW,315,6.3,-999.0,99,-99.99,,,2.27,Acu-Link.com,2013-02-24 00:19:00,
2013-02-23 19:35:00,55.4,55.1,29.68,West,270,4.2,-999.0,99,-99.99,,,2.27,Acu-Link.com,2013-02-24 00:35:00,
2013-02-23 19:50:00,55.2,54.9,29.69,West,270,6.8,-999.0,99,-99.99,,,2.27,Acu-Link.com,2013-02-24 00:50:00,
2013-02-23 20:05:00,54.9,54.6,29.69,West,270,5.8,-999.0,99,-99.99,,,2.27,Acu-Link.com,2013-02-24 01:05:00,
2013-02-23 20:21:00,54.5,54.2,29.71,West,270,4.7,-999.0,99,-99.99,,,2.27,Acu-Link.com,2013-02-24 01:21:00,
2013-02-23 20:36:00,54.1,53.8,29.73,West,270,7.3,-999.0,99,-99.99,,,2.28,Acu-Link.com,2013-02-24 01:36:00,
2013-02-23 20:52:00,53.6,53.3,29.72,West,270,4.2,-999.0,99,-99.99,,,2.33,Acu-Link.com,2013-02-24 01:52:00,
2013-02-23 21:07:00,53.6,53.3,29.72,West,270,2.2,-999.0,99,-99.99,,,2.41,Acu-Link.com,2013-02-24 02:07:00,
2013-02-23 21:23:00,53.6,53.3,29.72,ESE,112,0.0,-999.0,99,-99.99,,,2.42,Acu-Link.com,2013-02-24 02:23:00,
2013-02-23 21:38:00,53.6,53.3,29.73,ESE,112,0.0,-999.0,99,-99.99,,,2.45,Acu-Link.com,2013-02-24 02:38:00,
2013-02-23 21:53:00,53.6,53.3,29.72,ESE,112,1.1,-999.0,99,-99.99,,,2.53,Acu-Link.com,2013-02-24 02:53:00,
2013-02-23 22:08:00,53.6,53.3,29.70,East,90,3.2,-999.0,99,-99.99,,,2.55,Acu-Link.com,2013-02-24 03:08:00,
2013-02-23 22:24:00,53.8,53.5,29.68,ESE,112,2.2,-999.0,99,-99.99,,,2.56,Acu-Link.com,2013-02-24 03:24:00,
2013-02-23 22:39:00,54.0,53.7,29.67,ESE,112,3.2,-999.0,99,-99.99,,,2.58,Acu-Link.com,2013-02-24 03:39:00,
2013-02-23 22:54:00,54.5,54.2,29.63,NE,45,1.7,-999.0,99,-99.99,,,2.61,Acu-Link.com,2013-02-24 03:54:00,
2013-02-23 23:09:00,55.0,54.7,29.59,ESE,112,8.3,-999.0,99,-99.99,,,2.62,Acu-Link.com,2013-02-24 04:09:00,
2013-02-23 23:24:00,55.6,55.3,29.61,SW,225,3.7,-999.0,99,-99.99,,,2.63,Acu-Link.com,2013-02-24 04:24:00,
2013-02-23 23:40:00,55.9,55.6,29.60,SSW,202,1.1,-999.0,99,-99.99,,,2.63,Acu-Link.com,2013-02-24 04:40:00,
2013-02-23 23:55:00,56.8,56.5,29.59,SSE,157,1.7,-999.0,99,-99.99,,,2.63,Acu-Link.com,2013-02-24 04:55:00,